< < Back
Terminal Aerodrome Forecast


Current Version              Previous Versions:   1  2  3  4  5  6  7  8  9  

Terminal Aerodrome Forecast

909
FTUS44 KMRX 131720
TAFTYS
TAF
KTYS 131720Z 1318/1418 02009KT P6SM SCT030
     FM140300 04005KT P6SM BKN100
     FM141000 05005KT P6SM OVC060=

Latest METAR

612
SAUS80 KWBC 141400 RRA
MTRTYS
METAR KTYS 141353Z 04012KT 10SM BKN070 OVC120 M06/M14 A3036 RMK AO2
SLP294 T10561139


USA.gov is the U.S. government's official web portal to all federal, state and local government web resources and services.